Julesburg, Colorado
Current Conditions -  °F | °C
As of 7:15 AM on Wednesday 28 Jan 2015 (Local Time) from KOGA Reporting Station
Clear Clear  
Wind Chill: 42°   Ceiling: Unl
Heat Index: 49°   Visibility: 10mi
Dew Point: 35°   Wind: 20mph
Humidity: 58%   Direction: 310°NW
Pressure: 29.88"   Gusts: 26mph
Location:  40.99°N, 102.26°W
Report Text: KOGA 281415Z AUTO 31017G23KT 10SM CLR 09/02 A2988 RMK AO2 T00940016
Loading
Personal Weather Stations






























Interactive Weather Map New forecast layout! Learn more

10-Day Weather Forecast

Advertisements
Track Severe Weather on mobile